Skip Navigation LinksHome page > Weather > Current weather Skip Navigation Links

Current Weather

Heathrow, London

For information only: do not use for flight planning or navigation.
Latest weather
Observation time Saturday, March 7, 2015 1:20 AM GMT
Local time Saturday, March 7, 2015 1:37 AM GMT
Flight conditions Visual Meteorological Conditions
Winds
Wind direction South-Southwest (210°)
Wind speed 9 mph
Visibility 6.2 mi.
Sky condition
Ceiling unlimited
Temperature 45°F
Dewpoint 37°F
Altimeter 30.36 in.Hg
Derived measurements
Relative humidity 76%
Wind chill 40°F
Density altitude -1349 ft.
Remarks
Fully automated report.
METAR EGLL 070120Z AUTO 21008KT 9999 NCD 07/03 Q1028

Settings

Location code

InnerDrive.Weather 4.0.5505.0 Release CLR 4.0.30319.34014
Copyright ©2015 Inner Drive Technology. All rights reserved. Portions Copyright ©1986-2015 David Braverman.

Find weather

Site navigation


Skip Navigation Links

Place info

Page info

PayPal - The safer, easier way to pay online!

Return home.

Copyright ©2015 Inner Drive Technology. Purveyors of fine, hand-crafted computer software. Page printed 2015-03-07T01:37:12 UTC.